Time;durP1;ratioP1;P1;durP2;ratioP2;P2;SDS_P1;SDS_P2;PMS_P1;PMS_P2;Temp;Humidity;BMP_temperature;BMP_pressure;BME280_temperature;BME280_humidity;BME280_pressure;Samples;Min_cycle;Max_cycle;Signal;HPM_P1;HPM_P2
2022/03/11 00:02:28;;;;;;;15.20;4.87;;;;;;;2.07;60.04;101935.69;6025798;28;20092;-72
2022/03/11 00:16:58;;;;;;;13.40;4.47;;;;;;;1.95;59.83;101941.44;6025133;28;20050;-71
2022/03/11 00:19:54;;;;;;;14.93;5.07;;;;;;;1.92;60.25;101934.56;6025814;28;20038;-74
2022/03/11 00:22:50;;;;;;;15.07;6.53;;;;;;;1.92;60.03;101941.53;6025416;28;20034;-71
2022/03/11 00:25:45;;;;;;;10.27;4.03;;;;;;;1.87;59.82;101936.50;6025864;28;20038;-73
2022/03/11 00:28:41;;;;;;;11.53;4.63;;;;;;;1.78;60.37;101948.19;6020873;28;20383;-72
2022/03/11 00:31:36;;;;;;;11.30;4.57;;;;;;;1.81;60.22;101944.59;6014083;28;20466;-70
2022/03/11 00:34:31;;;;;;;10.63;4.80;;;;;;;1.77;60.09;101943.84;6026020;28;20034;-71
2022/03/11 00:37:26;;;;;;;11.70;4.43;;;;;;;1.79;59.96;101939.41;6025591;28;20026;-72
2022/03/11 00:40:22;;;;;;;12.00;4.57;;;;;;;1.87;59.25;101952.19;6024886;28;20057;-73
2022/03/11 00:43:18;;;;;;;10.23;3.43;;;;;;;1.79;59.67;101949.03;6025556;28;20053;-71
2022/03/11 00:46:13;;;;;;;11.98;4.88;;;;;;;1.72;59.77;101958.88;6036401;28;20709;-74
2022/03/11 00:49:08;;;;;;;14.37;4.80;;;;;;;1.67;60.16;101946.88;6025470;28;20026;-72
2022/03/11 00:52:04;;;;;;;9.10;4.38;;;;;;;1.60;60.72;101945.44;6024572;28;20023;-70
2022/03/11 00:55:02;;;;;;;12.40;4.40;;;;;;;1.59;60.43;101949.78;6024803;28;20034;-72
2022/03/11 00:57:57;;;;;;;10.50;4.68;;;;;;;1.52;60.84;101943.09;6029452;28;20520;-72
2022/03/11 01:00:52;;;;;;;10.57;4.10;;;;;;;1.49;60.52;101947.59;6032742;28;20038;-75
2022/03/11 01:03:48;;;;;;;13.07;4.33;;;;;;;1.40;60.52;101943.56;6025821;28;20069;-72
2022/03/11 01:06:43;;;;;;;12.52;3.97;;;;;;;1.45;60.19;101946.84;6025165;28;20462;-74
2022/03/11 01:09:38;;;;;;;13.68;4.88;;;;;;;1.40;60.50;101942.69;6025084;28;20041;-74
2022/03/11 01:12:34;;;;;;;11.90;4.37;;;;;;;1.31;60.28;101941.28;6024589;28;20026;-71
2022/03/11 01:15:29;;;;;;;10.98;4.60;;;;;;;1.35;60.54;101932.44;6028906;28;20080;-72
2022/03/11 01:18:25;;;;;;;14.47;4.10;;;;;;;1.33;60.32;101942.09;6042331;28;20362;-72
2022/03/11 01:21:20;;;;;;;13.83;4.40;;;;;;;1.23;60.51;101935.50;6036786;28;20160;-71
2022/03/11 01:24:15;;;;;;;12.32;5.50;;;;;;;1.18;60.30;101926.97;6030302;28;20030;-71
2022/03/11 01:27:11;;;;;;;10.17;4.57;;;;;;;1.27;60.65;101937.09;6030035;28;20715;-70
2022/03/11 01:30:09;;;;;;;12.70;4.87;;;;;;;1.33;59.57;101921.19;6028529;28;20273;-73
2022/03/11 01:33:04;;;;;;;11.85;4.85;;;;;;;1.24;59.92;101920.66;6031468;28;20022;-72
2022/03/11 01:35:59;;;;;;;8.63;3.53;;;;;;;1.22;59.96;101917.28;6049991;28;20061;-71
2022/03/11 01:38:56;;;;;;;8.77;3.33;;;;;;;1.17;60.04;101915.66;6034650;28;20042;-73
2022/03/11 01:41:52;;;;;;;9.98;4.10;;;;;;;1.17;59.55;101910.44;6036111;28;20677;-72
2022/03/11 01:44:47;;;;;;;12.88;5.03;;;;;;;1.25;59.90;101907.53;6030027;28;20031;-72
2022/03/11 01:47:43;;;;;;;12.93;4.73;;;;;;;1.10;59.72;101905.50;6030162;28;20061;-71
2022/03/11 01:50:40;;;;;;;9.85;3.17;;;;;;;1.02;60.00;101907.56;6028799;28;20022;-71
2022/03/11 01:53:35;;;;;;;11.98;5.38;;;;;;;0.95;60.43;101904.31;6030024;28;20121;-70
2022/03/11 01:56:31;;;;;;;12.87;5.10;;;;;;;0.94;60.57;101904.38;6029618;28;20373;-72
2022/03/11 01:59:26;;;;;;;16.13;5.32;;;;;;;0.94;60.18;101897.41;6036095;28;20031;-70
2022/03/11 02:02:21;;;;;;;13.90;4.63;;;;;;;0.83;60.53;101893.47;6028751;28;20022;-74
2022/03/11 02:05:17;;;;;;;13.10;4.53;;;;;;;0.90;59.81;101893.19;6029204;28;20023;-73
2022/03/11 02:08:12;;;;;;;9.13;3.50;;;;;;;0.89;59.49;101883.66;6052524;28;20397;-70
2022/03/11 02:11:09;;;;;;;7.37;4.33;;;;;;;0.90;59.34;101880.13;6042541;28;20034;-73
2022/03/11 02:14:05;;;;;;;13.55;4.10;;;;;;;0.91;59.55;101884.44;6029427;28;20462;-73
2022/03/11 02:17:00;;;;;;;11.32;4.70;;;;;;;0.89;59.33;101880.19;6044550;28;20041;-70
2022/03/11 02:19:56;;;;;;;14.63;5.43;;;;;;;0.87;59.41;101875.00;6050038;28;20486;-72
2022/03/11 02:22:52;;;;;;;11.18;3.85;;;;;;;0.89;59.33;101873.22;6028695;28;20057;-73
2022/03/11 02:25:47;;;;;;;12.07;4.75;;;;;;;0.83;59.26;101872.59;6029530;28;20073;-74
2022/03/11 02:28:47;;;;;;;10.40;3.93;;;;;;;0.74;59.63;101867.69;6062905;28;20037;-73
2022/03/11 02:31:42;;;;;;;10.80;3.90;;;;;;;0.73;59.64;101877.28;6034980;28;20473;-72
2022/03/11 02:34:38;;;;;;;13.60;4.30;;;;;;;0.75;59.44;101875.47;6039857;28;20032;-70
2022/03/11 02:37:33;;;;;;;8.00;3.92;;;;;;;0.73;59.29;101881.66;6029486;28;20041;-71
2022/03/11 02:40:29;;;;;;;11.20;4.37;;;;;;;0.68;59.86;101883.59;6028225;28;20469;-73
2022/03/11 02:43:24;;;;;;;11.03;4.37;;;;;;;0.56;60.15;101890.94;6028998;28;20030;-73
2022/03/11 02:46:20;;;;;;;10.27;4.82;;;;;;;0.46;60.64;101875.66;6027775;28;20041;-69
2022/03/11 02:49:15;;;;;;;10.27;3.97;;;;;;;0.47;60.45;101880.81;6028422;28;20049;-71
2022/03/11 02:52:10;;;;;;;10.10;4.75;;;;;;;0.41;60.66;101865.38;6027847;28;20422;-70
2022/03/11 02:55:06;;;;;;;9.05;4.18;;;;;;;0.38;60.91;101869.84;6028028;28;20022;-72
2022/03/11 02:58:01;;;;;;;8.82;3.15;;;;;;;0.30;61.00;101869.28;6048416;28;20026;-72
2022/03/11 03:01:00;;;;;;;14.23;4.17;;;;;;;0.22;61.22;101881.72;6039520;28;20093;-72
2022/03/11 03:03:55;;;;;;;10.68;3.80;;;;;;;0.27;60.83;101866.75;6028540;28;20385;-71
2022/03/11 03:06:51;;;;;;;12.87;3.63;;;;;;;0.21;61.50;101875.66;6027824;28;20042;-72
2022/03/11 03:09:46;;;;;;;11.23;4.60;;;;;;;0.19;61.12;101871.38;6027719;28;20037;-73
2022/03/11 03:12:41;;;;;;;11.40;4.53;;;;;;;0.19;61.25;101874.00;6042794;28;20416;-71
2022/03/11 03:15:37;;;;;;;10.27;4.30;;;;;;;0.07;61.86;101884.81;6047230;28;20058;-73
2022/03/11 03:18:32;;;;;;;9.70;4.63;;;;;;;0.06;61.59;101878.75;6036679;28;20032;-72
2022/03/11 03:21:27;;;;;;;11.70;4.18;;;;;;;0.10;61.64;101879.50;6028118;28;20061;-71
2022/03/11 03:24:23;;;;;;;14.10;5.13;;;;;;;0.02;61.62;101878.91;6027833;28;20042;-69
2022/03/11 03:27:18;;;;;;;10.00;3.97;;;;;;;-0.03;62.04;101879.91;6027315;28;20049;-73
2022/03/11 03:30:14;;;;;;;12.43;4.37;;;;;;;-0.03;62.17;101874.69;6025535;28;20045;-72
2022/03/11 03:33:09;;;;;;;10.57;4.03;;;;;;;-0.04;61.91;101869.53;6029642;28;20080;-71
2022/03/11 03:36:04;;;;;;;15.50;5.53;;;;;;;0.00;61.49;101866.78;6038004;28;20038;-72
2022/03/11 03:39:00;;;;;;;12.48;5.20;;;;;;;-0.11;61.75;101868.88;6028024;28;20109;-72
2022/03/11 03:41:55;;;;;;;12.73;4.20;;;;;;;-0.15;62.36;101863.81;6033689;28;20377;-71
2022/03/11 03:44:53;;;;;;;10.77;4.00;;;;;;;-0.12;62.40;101867.19;6039152;28;20030;-71
2022/03/11 03:47:48;;;;;;;9.52;4.18;;;;;;;-0.16;62.26;101865.56;6040972;28;20034;-72
2022/03/11 03:50:44;;;;;;;17.03;4.40;;;;;;;-0.21;62.52;101862.25;6041681;28;20114;-72
2022/03/11 03:53:39;;;;;;;11.40;4.80;;;;;;;-0.23;62.09;101866.69;6050931;28;20025;-70
2022/03/11 03:56:36;;;;;;;10.33;4.57;;;;;;;-0.27;62.70;101872.88;6039385;28;20312;-73
2022/03/11 03:59:32;;;;;;;12.27;4.95;;;;;;;-0.25;62.31;101862.41;6026923;28;20548;-71
2022/03/11 04:02:27;;;;;;;11.10;3.80;;;;;;;-0.24;62.63;101864.09;6026050;28;20034;-72
2022/03/11 04:05:22;;;;;;;7.27;3.00;;;;;;;-0.28;62.53;101860.78;6026107;28;20072;-72
2022/03/11 04:08:18;;;;;;;13.50;4.87;;;;;;;-0.29;62.51;101858.19;6039465;28;20370;-71
2022/03/11 04:11:13;;;;;;;11.63;4.03;;;;;;;-0.33;62.63;101860.06;6036109;28;20049;-71
2022/03/11 04:14:09;;;;;;;9.57;4.03;;;;;;;-0.41;62.54;101846.44;6036069;28;20033;-70
2022/03/11 04:17:04;;;;;;;16.25;4.65;;;;;;;-0.44;62.61;101840.47;6042967;28;20026;-69
2022/03/11 04:19:59;;;;;;;12.98;4.35;;;;;;;-0.47;62.42;101836.19;6047626;28;20428;-73
2022/03/11 04:22:55;;;;;;;10.10;4.80;;;;;;;-0.48;62.52;101831.88;6026108;28;20461;-69
2022/03/11 04:25:50;;;;;;;12.77;5.93;;;;;;;-0.46;62.49;101824.84;6026159;28;20378;-70
2022/03/11 04:28:45;;;;;;;10.67;4.37;;;;;;;-0.47;62.92;101831.00;6026020;28;20058;-69
2022/03/11 04:31:41;;;;;;;8.90;4.03;;;;;;;-0.53;62.59;101825.09;6025588;28;20026;-71
2022/03/11 04:34:36;;;;;;;10.07;4.67;;;;;;;-0.54;62.85;101807.81;6029674;28;20033;-70
2022/03/11 04:37:31;;;;;;;11.60;3.35;;;;;;;-0.57;63.00;101811.31;6035737;28;20026;-70
2022/03/11 04:40:27;;;;;;;10.57;4.13;;;;;;;-0.58;62.59;101814.84;6026793;28;20026;-70
2022/03/11 04:43:22;;;;;;;7.87;3.47;;;;;;;-0.55;62.57;101812.16;6025772;28;20101;-71
2022/03/11 04:46:17;;;;;;;11.57;4.60;;;;;;;-0.62;62.54;101801.06;6030525;28;20550;-72
2022/03/11 04:49:13;;;;;;;19.47;5.57;;;;;;;-0.59;62.97;101807.94;6049752;28;20271;-70
2022/03/11 04:52:08;;;;;;;14.20;5.70;;;;;;;-0.64;62.80;101800.28;6042668;28;20832;-70
2022/03/11 04:55:04;;;;;;;9.40;4.30;;;;;;;-0.59;62.25;101805.31;6048224;28;20026;-72
2022/03/11 04:57:59;;;;;;;11.75;4.80;;;;;;;-0.64;62.37;101796.81;6039341;28;20022;-72
2022/03/11 05:00:54;;;;;;;11.07;4.93;;;;;;;-0.66;62.30;101801.22;6043075;28;20113;-72
2022/03/11 05:03:49;;;;;;;9.37;3.20;;;;;;;-0.71;62.35;101790.09;6025785;28;20030;-71
2022/03/11 05:06:45;;;;;;;11.83;4.60;;;;;;;-0.69;61.76;101806.53;6026246;28;20040;-72
2022/03/11 05:09:40;;;;;;;15.33;6.30;;;;;;;-0.69;62.12;101801.31;6025971;28;20031;-70
2022/03/11 05:12:37;;;;;;;11.03;5.20;;;;;;;-0.72;62.25;101798.81;6031584;28;20187;-72
2022/03/11 05:15:35;;;;;;;11.55;3.72;;;;;;;-0.76;62.04;101798.03;6031330;28;20026;-73
2022/03/11 05:18:30;;;;;;;9.27;3.08;;;;;;;-0.73;61.85;101791.88;6035411;28;20026;-72
2022/03/11 05:21:25;;;;;;;8.02;3.10;;;;;;;-0.78;61.88;101789.44;6044211;28;20038;-73
2022/03/11 05:24:21;;;;;;;15.27;5.47;;;;;;;-0.79;61.87;101790.31;6020546;28;20065;-74
2022/03/11 05:27:16;;;;;;;13.18;4.30;;;;;;;-0.76;61.67;101787.63;6040520;28;20264;-70
2022/03/11 05:30:12;;;;;;;14.73;4.20;;;;;;;-0.74;61.39;101779.78;6028887;28;20381;-70
2022/03/11 05:33:07;;;;;;;14.40;4.53;;;;;;;-0.75;61.13;101788.47;6025502;28;20304;-69
2022/03/11 05:36:03;;;;;;;15.23;5.28;;;;;;;-0.78;61.30;101792.03;6025760;28;20042;-71
2022/03/11 05:38:58;;;;;;;13.90;4.53;;;;;;;-0.81;60.89;101781.72;6048441;28;20056;-70
2022/03/11 05:41:53;;;;;;;7.60;3.73;;;;;;;-0.78;60.15;101780.75;6032312;28;20113;-73
2022/03/11 05:44:49;;;;;;;11.67;5.33;;;;;;;-0.78;61.03;101780.75;6025781;28;20033;-73
2022/03/11 05:47:44;;;;;;;10.60;4.10;;;;;;;-0.81;60.51;101793.88;6025519;28;20061;-73
2022/03/11 05:50:39;;;;;;;15.33;5.20;;;;;;;-0.80;60.42;101793.84;6025125;28;20053;-69
2022/03/11 05:53:35;;;;;;;10.57;3.83;;;;;;;-0.73;59.45;101794.47;6025653;28;20052;-73
2022/03/11 05:56:30;;;;;;;8.57;3.47;;;;;;;-0.84;59.32;101793.97;6025184;28;20072;-70
2022/03/11 05:59:26;;;;;;;11.20;4.07;;;;;;;-0.75;58.62;101804.09;6025245;28;20536;-72
2022/03/11 06:02:21;;;;;;;9.55;3.92;;;;;;;-0.72;58.75;101799.66;6024095;28;20691;-70
2022/03/11 06:05:16;;;;;;;14.30;5.60;;;;;;;-0.76;58.69;101794.59;6027213;28;20050;-72
2022/03/11 06:08:11;;;;;;;10.33;3.17;;;;;;;-0.79;58.73;101795.53;6027006;28;20412;-70
2022/03/11 06:11:07;;;;;;;13.63;4.80;;;;;;;-0.75;58.63;101824.94;6030128;28;20048;-73
2022/03/11 06:14:02;;;;;;;11.70;5.18;;;;;;;-0.77;58.33;101816.31;6031923;28;20029;-72
2022/03/11 06:16:57;;;;;;;6.57;3.77;;;;;;;-0.78;58.53;101810.25;6037338;28;20038;-71
2022/03/11 06:19:53;;;;;;;8.70;3.87;;;;;;;-0.72;58.25;101830.03;6029139;28;20023;-72
2022/03/11 06:22:49;;;;;;;8.37;4.23;;;;;;;-0.75;57.88;101822.31;6025056;28;20042;-69
2022/03/11 06:25:45;;;;;;;13.55;4.75;;;;;;;-0.72;58.05;101833.50;6036069;28;20038;-71
2022/03/11 06:28:40;;;;;;;9.87;4.73;;;;;;;-0.67;57.53;101825.53;6034548;28;20027;-71
2022/03/11 06:31:35;;;;;;;14.30;5.43;;;;;;;-0.51;56.96;101824.16;6028196;28;20041;-71
2022/03/11 06:34:30;;;;;;;11.45;4.90;;;;;;;-0.41;56.73;101828.19;6032375;28;20038;-71
2022/03/11 06:37:26;;;;;;;11.30;4.40;;;;;;;-0.47;56.70;101833.59;6038329;28;20038;-71
2022/03/11 06:40:21;;;;;;;11.57;4.83;;;;;;;-0.49;56.81;101835.38;6030612;28;20437;-72
2022/03/11 06:43:17;;;;;;;9.70;4.03;;;;;;;-0.35;56.13;101830.59;6028549;28;20469;-70
2022/03/11 06:46:12;;;;;;;9.43;4.18;;;;;;;-0.24;55.87;101828.47;6028675;28;20271;-70
2022/03/11 06:49:08;;;;;;;8.30;3.73;;;;;;;-0.13;55.18;101833.34;6028186;28;20496;-72
2022/03/11 06:52:03;;;;;;;12.00;4.27;;;;;;;-0.16;55.24;101847.31;6027187;28;20073;-71
2022/03/11 06:54:59;;;;;;;9.35;3.58;;;;;;;-0.08;54.74;101834.88;6028061;28;20026;-72
2022/03/11 06:57:54;;;;;;;11.20;4.10;;;;;;;-0.06;54.63;101830.50;6030812;28;20041;-72
2022/03/11 07:00:49;;;;;;;10.37;3.70;;;;;;;0.07;54.32;101811.81;6022879;28;20040;-69
2022/03/11 07:03:45;;;;;;;12.38;4.82;;;;;;;0.12;54.06;101833.38;6034155;28;20038;-72
2022/03/11 07:06:40;;;;;;;8.90;4.10;;;;;;;0.10;53.43;101832.56;6028433;28;20037;-70
2022/03/11 07:09:35;;;;;;;13.87;4.80;;;;;;;0.15;53.13;101835.88;6028226;28;20030;-71
2022/03/11 07:12:31;;;;;;;11.07;4.37;;;;;;;0.26;52.29;101834.59;6027832;28;20031;-70
2022/03/11 07:15:26;;;;;;;11.00;4.68;;;;;;;0.29;52.09;101825.81;6023306;28;20609;-70
2022/03/11 07:18:21;;;;;;;9.03;3.93;;;;;;;0.37;51.91;101835.09;6037820;28;20037;-70
2022/03/11 07:21:17;;;;;;;10.57;4.03;;;;;;;0.48;51.67;101825.13;6037982;28;20113;-70
2022/03/11 07:24:12;;;;;;;13.60;3.57;;;;;;;0.56;51.46;101833.53;6027612;28;20041;-71
2022/03/11 07:27:07;;;;;;;14.00;4.80;;;;;;;0.66;50.87;101841.88;6027873;28;20037;-70
2022/03/11 07:30:03;;;;;;;13.90;4.37;;;;;;;0.73;50.78;101840.75;6030354;28;20421;-73
2022/03/11 07:33:01;;;;;;;8.65;3.40;;;;;;;0.79;50.32;101826.63;6031577;28;20274;-70
2022/03/11 07:35:56;;;;;;;8.30;3.28;;;;;;;0.78;49.51;101828.38;6034923;28;20018;-71
2022/03/11 07:38:52;;;;;;;9.83;4.40;;;;;;;0.96;49.50;101838.13;6047404;28;20033;-73
2022/03/11 07:41:49;;;;;;;9.77;4.25;;;;;;;1.03;48.87;101836.97;6026393;28;20548;-68
2022/03/11 07:44:45;;;;;;;8.45;4.28;;;;;;;1.13;48.79;101842.72;6033888;28;20033;-71
2022/03/11 07:47:41;;;;;;;13.27;4.80;;;;;;;1.15;48.57;101833.91;6041637;28;20094;-70
2022/03/11 07:50:36;;;;;;;9.85;3.65;;;;;;;1.14;48.35;101836.59;6030281;28;20807;-71
2022/03/11 07:53:32;;;;;;;12.37;4.73;;;;;;;1.19;47.57;101819.84;6026776;28;20042;-72
2022/03/11 07:56:27;;;;;;;13.35;5.90;;;;;;;1.23;47.95;101811.84;6027031;28;20060;-70
2022/03/11 07:59:22;;;;;;;8.70;3.87;;;;;;;1.29;47.06;101822.06;6036233;28;20370;-72
2022/03/11 08:02:18;;;;;;;9.53;4.43;;;;;;;1.49;46.70;101822.16;6038797;28;20308;-70
2022/03/11 08:05:16;;;;;;;9.67;4.63;;;;;;;1.48;46.95;101823.91;6050418;28;20108;-70
2022/03/11 08:08:11;;;;;;;12.25;5.60;;;;;;;1.50;46.14;101805.53;6050371;28;20026;-72
2022/03/11 08:11:06;;;;;;;8.95;3.50;;;;;;;1.63;46.52;101810.22;6049564;28;20037;-70
2022/03/11 08:14:02;;;;;;;6.73;2.97;;;;;;;1.76;46.13;101807.97;6031716;28;20026;-71
2022/03/11 08:16:58;;;;;;;10.90;4.63;;;;;;;1.98;45.58;101811.41;6026706;28;20022;-70
2022/03/11 08:19:53;;;;;;;11.77;4.50;;;;;;;2.04;45.50;101816.34;6039137;28;20030;-70
2022/03/11 08:22:50;;;;;;;8.03;2.97;;;;;;;1.87;44.86;101815.38;6032956;28;20373;-70
2022/03/11 08:25:46;;;;;;;9.98;4.05;;;;;;;2.08;45.27;101809.22;6025966;28;20517;-72
2022/03/11 08:28:41;;;;;;;12.20;4.80;;;;;;;2.14;44.41;101815.06;6033600;28;20030;-71
2022/03/11 08:31:37;;;;;;;8.80;4.45;;;;;;;2.15;43.88;101808.91;6025613;28;20425;-70
2022/03/11 08:34:32;;;;;;;12.15;3.75;;;;;;;1.96;44.03;101813.19;6029841;28;20065;-71
2022/03/11 08:37:29;;;;;;;9.80;4.43;;;;;;;2.00;44.48;101780.78;6044375;28;20033;-71
2022/03/11 08:40:26;;;;;;;11.02;5.25;;;;;;;2.19;44.64;101800.00;6029060;28;20062;-72
2022/03/11 08:43:22;;;;;;;11.05;4.50;;;;;;;2.30;43.76;101803.03;6030405;28;20595;-69
2022/03/11 08:46:17;;;;;;;10.88;4.70;;;;;;;2.14;44.19;101786.28;6033832;28;20457;-70
2022/03/11 08:49:13;;;;;;;13.40;4.87;;;;;;;2.38;43.87;101793.06;6034651;28;20049;-72
2022/03/11 08:52:08;;;;;;;11.27;4.37;;;;;;;2.65;43.35;101790.97;6031436;28;20041;-71
2022/03/11 08:55:04;;;;;;;10.68;4.85;;;;;;;2.80;43.41;101786.81;6025206;28;20030;-70
2022/03/11 08:57:59;;;;;;;8.88;3.80;;;;;;;2.78;42.61;101802.59;6024618;28;20060;-74
2022/03/11 09:00:55;;;;;;;8.03;3.97;;;;;;;2.73;42.60;101785.38;6027278;28;20052;-72
2022/03/11 09:03:51;;;;;;;10.25;4.75;;;;;;;3.01;42.89;101785.81;6031413;28;20030;-71
2022/03/11 09:06:46;;;;;;;12.30;5.82;;;;;;;2.80;42.41;101786.81;6049552;28;20053;-71
2022/03/11 09:09:41;;;;;;;13.93;4.60;;;;;;;2.94;42.30;101768.69;6032361;28;20417;-73
2022/03/11 09:12:38;;;;;;;10.63;3.70;;;;;;;3.23;42.51;101776.03;6024456;28;20030;-71
2022/03/11 09:15:33;;;;;;;8.20;3.50;;;;;;;3.43;41.66;101773.28;6031295;28;20588;-70
2022/03/11 09:18:28;;;;;;;13.30;4.90;;;;;;;3.47;41.93;101767.00;6026317;28;20034;-72
2022/03/11 09:21:24;;;;;;;9.50;3.53;;;;;;;3.48;41.91;101767.81;6033438;28;20026;-70
2022/03/11 09:24:19;;;;;;;12.88;4.72;;;;;;;3.49;40.69;101756.41;6025078;28;20057;-72
2022/03/11 09:27:18;;;;;;;9.73;4.50;;;;;;;3.67;40.69;101768.59;6024126;28;20034;-72
2022/03/11 09:30:13;;;;;;;10.23;4.47;;;;;;;3.82;41.07;101764.38;6036165;28;20093;-69
2022/03/11 09:33:08;;;;;;;10.80;4.28;;;;;;;3.66;40.81;101752.97;6026080;28;20038;-71
2022/03/11 09:36:05;;;;;;;11.73;4.50;;;;;;;3.88;41.21;101762.31;6025414;28;20022;-69
2022/03/11 09:39:00;;;;;;;9.20;3.92;;;;;;;3.97;41.19;101766.22;6028230;28;20024;-73
2022/03/11 09:41:55;;;;;;;12.13;4.90;;;;;;;3.73;40.24;101770.06;6026747;28;20030;-72
2022/03/11 09:44:53;;;;;;;10.60;4.83;;;;;;;3.94;41.56;101758.53;6029789;28;20456;-71
2022/03/11 09:47:49;;;;;;;9.85;4.47;;;;;;;4.06;40.85;101723.75;6024341;28;20462;-71
2022/03/11 09:50:44;;;;;;;13.53;4.60;;;;;;;3.92;40.89;101770.84;6028386;28;20073;-70
2022/03/11 09:53:42;;;;;;;10.37;5.17;;;;;;;4.07;41.26;101759.59;6053058;28;20166;-72
2022/03/11 09:56:39;;;;;;;7.43;3.28;;;;;;;4.26;40.11;101762.09;6026521;28;20281;-70
2022/03/11 09:59:35;;;;;;;13.85;5.03;;;;;;;4.23;40.44;101755.25;6043257;28;20040;-73
2022/03/11 10:02:30;;;;;;;13.50;4.50;;;;;;;4.14;39.41;101740.81;6031141;28;20034;-71
2022/03/11 10:05:43;;;;;;;10.57;3.90;;;;;;;4.47;39.48;101753.94;6029000;28;20528;-72
2022/03/11 10:08:40;;;;;;;10.00;4.72;;;;;;;4.53;38.98;101743.13;6029347;28;20026;-73
2022/03/11 10:11:36;;;;;;;9.30;4.53;;;;;;;4.63;38.29;101733.81;6033310;28;20037;-72
2022/03/11 10:14:37;;;;;;;9.75;4.38;;;;;;;4.82;39.02;101747.63;6035534;28;20065;-73
2022/03/11 10:17:40;;;;;;;;;;;;;;;4.97;37.45;101737.22;6029755;28;20037;-72
2022/03/11 10:20:35;;;;;;;6.20;3.13;;;;;;;4.90;37.51;101727.97;6045844;28;20612;-71
2022/03/11 10:23:47;;;;;;;12.60;4.32;;;;;;;5.03;38.46;101729.81;6028874;28;20084;-71
2022/03/11 10:26:44;;;;;;;9.95;4.30;;;;;;;4.95;37.13;101733.81;6030921;28;20041;-74
2022/03/11 10:29:40;;;;;;;9.30;3.88;;;;;;;5.37;36.74;101718.25;6052823;28;20022;-71
2022/03/11 10:32:35;;;;;;;10.75;4.28;;;;;;;5.36;37.55;101735.81;6045133;28;20044;-71
2022/03/11 10:35:36;;;;;;;10.27;5.07;;;;;;;5.40;36.29;101731.25;6043477;28;20143;-73
2022/03/11 10:38:36;;;;;;;14.48;4.00;;;;;;;5.55;36.60;101714.56;6040940;28;20061;-70
2022/03/11 10:41:32;;;;;;;10.68;4.18;;;;;;;5.60;37.16;101701.16;6031908;28;20054;-72
2022/03/11 10:44:28;;;;;;;10.73;4.50;;;;;;;5.76;36.79;101723.81;6028659;28;20093;-72
2022/03/11 10:47:34;;;;;;;8.88;3.95;;;;;;;5.86;36.09;101717.13;6028550;28;20535;-73
2022/03/11 10:50:35;;;;;;;13.50;3.58;;;;;;;5.98;37.04;101723.41;6020453;28;20030;-69
2022/03/11 10:53:37;;;;;;;10.15;3.97;;;;;;;6.09;34.50;101707.00;6028050;28;20030;-72
2022/03/11 10:56:35;;;;;;;8.75;3.95;;;;;;;5.78;34.33;101719.34;6034490;28;20033;-69
2022/03/11 10:59:31;;;;;;;7.05;3.40;;;;;;;5.82;35.01;101712.94;6052126;28;20021;-72
2022/03/11 11:02:26;;;;;;;8.43;3.80;;;;;;;6.29;34.38;101706.63;6035874;28;20031;-72
2022/03/11 11:05:22;;;;;;;13.30;3.40;;;;;;;6.68;33.99;101704.16;6028389;28;20037;-74
2022/03/11 11:08:18;;;;;;;12.50;5.07;;;;;;;6.28;33.79;101700.50;6027933;28;20277;-71
2022/03/11 11:11:13;;;;;;;13.47;4.30;;;;;;;6.69;34.33;101690.00;6026955;28;20041;-72
2022/03/11 11:14:10;;;;;;;10.63;3.83;;;;;;;6.94;34.22;101694.56;6042896;28;20026;-72
2022/03/11 11:17:05;;;;;;;9.00;3.88;;;;;;;6.84;33.27;101686.41;6044030;28;20033;-73
2022/03/11 11:20:02;;;;;;;8.25;3.25;;;;;;;6.82;33.94;101680.38;6047899;28;20030;-71
2022/03/11 11:23:03;;;;;;;9.82;3.55;;;;;;;6.75;34.57;101663.28;6032138;28;20402;-72
2022/03/11 11:25:59;;;;;;;10.57;3.58;;;;;;;6.90;32.79;101658.81;6027994;28;20050;-72
2022/03/11 11:28:57;;;;;;;10.43;3.55;;;;;;;6.58;33.73;101668.75;6027732;28;20037;-71
2022/03/11 11:31:53;;;;;;;9.35;4.40;;;;;;;6.79;33.82;101664.78;6026275;28;20038;-70
2022/03/11 11:34:48;;;;;;;10.40;3.55;;;;;;;6.71;34.32;101659.16;6060369;28;20517;-72
2022/03/11 11:37:43;;;;;;;9.73;4.27;;;;;;;6.97;34.38;101658.31;6030250;28;20122;-71
2022/03/11 11:40:43;;;;;;;16.70;8.30;;;;;;;6.80;33.42;101648.00;6027164;28;20444;-72
2022/03/11 11:43:52;;;;;;;8.80;4.13;;;;;;;6.73;32.99;101659.03;6041065;28;20037;-71
2022/03/11 11:47:15;;;;;;;9.48;4.13;;;;;;;7.28;32.79;101614.94;6033056;28;20038;-73
2022/03/11 11:50:15;;;;;;;10.15;4.15;;;;;;;7.14;32.51;101629.06;6030571;28;20018;-70
2022/03/11 11:53:11;;;;;;;10.20;3.75;;;;;;;7.34;33.00;101640.06;6026232;28;20030;-72
2022/03/11 11:56:43;;;;;;;8.70;3.03;;;;;;;7.38;33.06;101631.84;6032420;28;20369;-73
2022/03/11 11:59:41;;;;;;;12.52;4.25;;;;;;;7.36;32.62;101638.16;6033851;28;20026;-70
2022/03/11 12:02:37;;;;;;;8.68;3.58;;;;;;;7.18;32.47;101632.31;6031309;28;20021;-71
2022/03/11 12:05:46;;;;;;;9.60;4.33;;;;;;;7.20;32.67;101625.97;6034459;28;20084;-70
2022/03/11 12:08:45;;;;;;;7.32;3.70;;;;;;;7.51;32.85;101616.00;6024887;28;20273;-72
2022/03/11 12:11:42;;;;;;;10.60;4.30;;;;;;;7.54;31.79;101613.16;6026656;28;20466;-71
2022/03/11 12:15:05;;;;;;;8.88;4.10;;;;;;;7.77;32.18;101612.44;6030615;28;20022;-73
2022/03/11 12:18:02;;;;;;;8.77;3.83;;;;;;;7.86;31.82;101600.38;6028836;28;20029;-71
2022/03/11 12:20:59;;;;;;;9.00;3.15;;;;;;;7.70;32.00;101596.19;6034269;28;20025;-72
2022/03/11 12:23:54;;;;;;;7.43;3.50;;;;;;;7.64;32.11;101598.38;6025202;28;20121;-72
2022/03/11 12:26:49;;;;;;;8.60;3.63;;;;;;;7.56;31.53;101598.06;6028410;28;20384;-71
2022/03/11 12:29:45;;;;;;;10.17;4.33;;;;;;;7.97;31.20;101585.47;6034024;28;20340;-73
2022/03/11 12:32:40;;;;;;;12.13;4.20;;;;;;;7.72;32.08;101590.78;6024454;28;20038;-74
2022/03/11 12:35:36;;;;;;;8.05;4.03;;;;;;;7.58;31.79;101569.78;6025005;28;20049;-71
2022/03/11 12:38:33;;;;;;;10.55;4.25;;;;;;;8.05;32.17;101596.34;6031231;28;20118;-72
2022/03/11 12:41:31;;;;;;;10.55;5.25;;;;;;;8.27;32.17;101601.84;6033573;28;20035;-72
2022/03/11 12:44:27;;;;;;;7.65;3.78;;;;;;;7.79;31.57;101585.00;6025771;28;20429;-74
2022/03/11 12:47:23;;;;;;;9.55;3.97;;;;;;;7.99;31.64;101567.72;6025576;28;20026;-73
2022/03/11 12:50:20;;;;;;;8.20;3.80;;;;;;;7.90;31.28;101575.47;6025656;28;20485;-72
2022/03/11 12:53:16;;;;;;;10.82;3.72;;;;;;;8.15;31.15;101578.88;6022203;28;20551;-69
2022/03/11 12:56:12;;;;;;;9.25;3.47;;;;;;;8.35;31.17;101561.66;6028719;28;20598;-74
2022/03/11 12:59:07;;;;;;;8.73;3.77;;;;;;;8.22;31.33;101566.09;6031701;28;20038;-73
2022/03/11 13:02:04;;;;;;;6.10;3.00;;;;;;;8.29;31.57;101568.22;6027294;28;20034;-71
2022/03/11 13:05:00;;;;;;;15.07;4.00;;;;;;;8.38;30.85;101541.13;6034068;28;20030;-72
2022/03/11 13:08:00;;;;;;;14.07;3.43;;;;;;;8.09;30.84;101545.00;6025754;28;20484;-70
2022/03/11 13:10:56;;;;;;;5.05;2.95;;;;;;;8.20;31.16;101526.59;6037608;28;20273;-72
2022/03/11 13:13:52;;;;;;;10.43;3.88;;;;;;;7.95;30.75;101545.16;6027355;28;20536;-72
2022/03/11 13:16:52;;;;;;;11.30;4.18;;;;;;;8.10;30.85;101522.91;6033840;28;20049;-73
2022/03/11 13:19:47;;;;;;;9.48;3.45;;;;;;;8.69;31.65;101531.81;6035245;28;20034;-72
2022/03/11 13:22:49;;;;;;;10.10;4.07;;;;;;;8.77;30.96;101523.28;6030400;28;20077;-73
2022/03/11 13:25:48;;;;;;;6.63;3.85;;;;;;;8.51;30.52;101540.22;6029603;28;20410;-71
2022/03/11 13:28:49;;;;;;;7.97;3.15;;;;;;;8.26;30.76;101518.19;6046568;28;20026;-71
2022/03/11 13:31:44;;;;;;;8.88;3.63;;;;;;;8.22;30.90;101511.47;6033059;28;20030;-71
2022/03/11 13:34:48;;;;;;;11.37;4.60;;;;;;;8.33;31.25;101516.84;6030975;28;20093;-73
2022/03/11 13:37:43;;;;;;;8.10;4.03;;;;;;;8.45;31.59;101517.75;6035890;28;20257;-73
2022/03/11 13:40:49;;;;;;;9.07;4.37;;;;;;;8.35;31.00;101514.94;6039884;28;20403;-73
2022/03/11 13:43:56;;;;;;;9.27;3.92;;;;;;;8.33;31.04;101519.50;6039055;28;20273;-72
2022/03/11 13:46:55;;;;;;;7.82;4.53;;;;;;;8.38;30.92;101521.78;6039181;28;20039;-72
2022/03/11 13:49:50;;;;;;;10.20;4.40;;;;;;;8.56;30.85;101506.38;6030358;28;20109;-72
2022/03/11 13:52:46;;;;;;;11.23;4.40;;;;;;;8.62;30.77;101505.91;6029344;28;20069;-71
2022/03/11 13:55:41;;;;;;;10.93;3.60;;;;;;;8.66;31.08;101496.81;6029917;28;20038;-72